OBBIOIKB

Guest
Details From OBBI - Bahrain Intl
To OIKB - Bandar Abbass Intl
Flight Number -
Tags Generated
Created
Modified
Stats Distance 313 nm / 580 km
Max Altitude 0 ft / 0 m
Waypoints 3
Social Downloads 2
Likes 0
Share VATSIM

Download

Looking for another format? Having issues loading an existing format? Contact us
Advertisement - Login to hide

Notes

Generated

Route

OBBI BND OIKB

ID Type Via Altitude Latitude Longitude Leg Dist Tot Dist Heading (true) Name
O OBBI APT - 0 ft / 0 m 26.27100˚ 50.62993˚ - 0 nm - -
BND VOR - 0 ft / 0 m 27.19706˚ 56.36678˚ 312 nm 312 nm 78° / 81° BANDAR ABBASS VOR-DME
O OIKB APT - 0 ft / 0 m 27.20505˚ 56.36861˚ 0 nm 313 nm 12° / 12° -

Altitude Profile

Advertisement - Login to hide

Weather


0- 5 10 15 20 25 30 35+ Temperature / ° C

Clouds and Precipitation
Forecast for 2018-05-26 06:00 UTC. Updated 5 hours ago

Ground ~20,000 ft ~40,000 ft Winds

OBBI

Details ICAO OBBI (BAH)
Name BAHRAIN INTL
Region Bahrain
Timezone Asia/Bahrain (UTC+3.0)
Stats Elevation 6 ft / 2 m (AMSL)
Location 26.267837° 50.637095°
Runways 2
Magnetic Variation 2.783° E

METAR

OBBI 261030Z 36008KT 330V030 CAVOK 38/08 Q1006 NOSIG

Decode

TAF

TAF OBBI 260500Z 2606/2712 VRB05KT 8000 NSC BECMG 2610/2612 06010KT BECMG 2618/2620 VRB05KT

Decode

Departure Runways

ID Width Length Bearing (true) Bearing (mag) Surface Threshold Offset Overrun Length
12L 197 ft / 60 m 12,893 ft / 3,930 m 122.74° 119.96° Asphalt 1,000 ft / 305 m 0 ft / 0 m
12R 148 ft / 45 m 8,303 ft / 2,531 m 122.76° 119.98° Asphalt 1,000 ft / 305 m 0 ft / 0 m
30L 148 ft / 45 m 8,303 ft / 2,531 m 302.77° 299.99° Asphalt 395 ft / 120 m 0 ft / 0 m
30R 197 ft / 60 m 12,893 ft / 3,930 m 302.75° 299.97° Asphalt 1,000 ft / 305 m 0 ft / 0 m

OIKB

Details ICAO OIKB (BND)
Name BANDAR ABBASS INTL
Region Iran
Timezone Asia/Tehran (UTC+4.5)
Stats Elevation 22 ft / 7 m (AMSL)
Location 27.218316° 56.377852°
Runways 2
Magnetic Variation 2.338° E

METAR

OIKB 261030Z 22012KT 4000 HZ FEW030 SCT090 BKN190 36/21 Q1005 A2968

Decode

TAF

TAF OIKB 260510Z 2606/2712 23004MPS 6000 NSC TEMPO 2612/2621 23009MPS BECMG 2709/2712 23009MPS SCT035 BKN100

Decode

Destination Runways

ID Width Length Bearing (true) Bearing (mag) Surface Threshold Offset Overrun Length
03L 98 ft / 30 m 11,370 ft / 3,466 m 27.64° 25.30° Asphalt 0 ft / 0 m 984 ft / 300 m
03R 148 ft / 45 m 12,040 ft / 3,670 m 27.64° 25.30° Asphalt 0 ft / 0 m 1,198 ft / 365 m
21L 148 ft / 45 m 12,040 ft / 3,670 m 207.65° 205.31° Asphalt 0 ft / 0 m 1,198 ft / 365 m
21R 98 ft / 30 m 11,370 ft / 3,466 m 207.64° 205.30° Asphalt 0 ft / 0 m 0 ft / 0 m

Approach Navaids

Runway Type Ident Frequency Range Bearing (true) Bearing (mag) Slope Elevation
21L Localiser IBND 109.90 MHz 18 nm / 33 km 208.03° 205.69° - 3 ft / 1 m (AMSL)
21L Glidescope IBND 109.90 MHz 10 nm / 19 km 207.64° 205.30° 2.98° 12 ft / 4 m (AMSL)
21L DME IBND 109.90 MHz 18 nm / 33 km - - - 12 ft / 4 m (AMSL)